createdAt,value
2019-02-23T00:00:19.734Z,18.30
2019-02-23T00:01:19.792Z,16.80
2019-02-23T00:02:19.709Z,18.40
2019-02-23T00:03:19.718Z,18.20
2019-02-23T00:04:20.118Z,17.60
2019-02-23T00:05:19.693Z,18.80
2019-02-23T00:06:29.469Z,20.20
2019-02-23T00:07:20.866Z,17.90
2019-02-23T00:08:19.643Z,18.90
2019-02-23T00:09:19.659Z,18.60
2019-02-23T00:10:19.656Z,19.10
2019-02-23T00:11:19.960Z,18.00
2019-02-23T00:12:19.617Z,17.90
2019-02-23T00:13:19.663Z,17.70
2019-02-23T00:14:19.586Z,18.20
2019-02-23T00:15:19.594Z,21.40
2019-02-23T00:16:19.620Z,20.80
2019-02-23T00:17:19.554Z,17.70
2019-02-23T00:18:19.576Z,19.40
2019-02-23T00:19:24.994Z,17.20
2019-02-23T00:20:20.527Z,18.60
2019-02-23T00:21:19.523Z,18.40
2019-02-23T00:22:19.520Z,21.20
2019-02-23T00:23:19.493Z,17.80
2019-02-23T00:24:20.882Z,19.20
2019-02-23T00:25:19.573Z,18.60
2019-02-23T00:26:19.468Z,18.00
2019-02-23T00:27:19.464Z,20.10
2019-02-23T00:28:19.453Z,17.70
2019-02-23T00:29:19.452Z,20.00
2019-02-23T00:30:20.292Z,20.70
2019-02-23T00:31:19.498Z,18.90
2019-02-23T00:32:19.398Z,19.10
2019-02-23T00:33:19.395Z,16.60
2019-02-23T00:34:19.391Z,17.10
2019-02-23T00:35:19.366Z,17.70
2019-02-23T00:36:19.753Z,18.40
2019-02-23T00:37:19.696Z,17.00
2019-02-23T00:38:19.348Z,18.50
2019-02-23T00:39:19.336Z,17.60
2019-02-23T00:40:19.312Z,17.80
2019-02-23T00:41:19.321Z,16.90
2019-02-23T00:42:19.322Z,18.20
2019-02-23T00:43:19.328Z,17.60
2019-02-23T00:44:19.272Z,19.50
2019-02-23T00:45:19.343Z,19.90
2019-02-23T00:46:19.262Z,19.80
2019-02-23T00:47:19.236Z,21.90
2019-02-23T00:48:19.248Z,18.30
2019-02-23T00:49:19.341Z,19.70
2019-02-23T00:50:19.231Z,18.90
2019-02-23T00:51:19.223Z,18.60
2019-02-23T00:52:19.197Z,17.70
2019-02-23T00:53:19.187Z,19.20
2019-02-23T00:54:19.621Z,16.60
2019-02-23T00:55:19.458Z,16.00
2019-02-23T00:56:19.168Z,15.50
2019-02-23T00:57:19.147Z,16.00
2019-02-23T00:58:19.138Z,14.40
2019-02-23T00:59:19.124Z,13.20
2019-02-23T01:00:19.118Z,13.80
2019-02-23T01:01:19.173Z,14.90
2019-02-23T01:02:19.091Z,13.00
2019-02-23T01:03:19.084Z,15.10
2019-02-23T01:04:19.068Z,13.80
2019-02-23T01:05:19.077Z,13.30
2019-02-23T01:06:19.059Z,16.50
2019-02-23T01:07:19.532Z,13.00
2019-02-23T01:08:19.041Z,12.40
2019-02-23T01:09:19.018Z,11.90
2019-02-23T01:10:19.793Z,12.70
2019-02-23T01:11:19.825Z,12.00
2019-02-23T01:12:18.990Z,20.40
2019-02-23T01:13:20.002Z,12.90
2019-02-23T01:14:18.976Z,12.50
2019-02-23T01:15:18.967Z,11.50
2019-02-23T01:16:18.947Z,10.80
2019-02-23T01:17:18.943Z,11.30
2019-02-23T01:18:18.957Z,10.60
2019-02-23T01:19:19.440Z,13.30
2019-02-23T01:20:18.927Z,11.90
2019-02-23T01:21:18.898Z,11.30
2019-02-23T01:22:18.884Z,11.40
2019-02-23T01:23:18.880Z,10.80
2019-02-23T01:24:18.877Z,12.10
2019-02-23T01:25:18.928Z,12.40
2019-02-23T01:26:18.887Z,11.50
2019-02-23T01:27:18.830Z,11.50
2019-02-23T01:28:18.820Z,11.70
2019-02-23T01:29:18.828Z,16.10
2019-02-23T01:30:18.809Z,12.60
2019-02-23T01:31:18.967Z,13.10
2019-02-23T01:32:18.800Z,16.70
2019-02-23T01:33:18.777Z,13.60
2019-02-23T01:34:18.776Z,13.10
2019-02-23T01:35:18.757Z,10.00
2019-02-23T01:36:18.743Z,12.20
2019-02-23T01:37:19.337Z,11.20
2019-02-23T01:38:18.727Z,12.20
2019-02-23T01:39:18.715Z,11.80
2019-02-23T01:40:18.706Z,11.30
2019-02-23T01:41:18.694Z,12.70
2019-02-23T01:42:18.681Z,19.20
2019-02-23T01:43:19.039Z,14.70
2019-02-23T01:44:19.131Z,13.30
2019-02-23T01:45:18.652Z,12.30
2019-02-23T01:46:18.643Z,11.00
2019-02-23T01:47:18.641Z,12.80
2019-02-23T01:48:18.609Z,11.30
2019-02-23T01:49:18.966Z,11.60
2019-02-23T01:50:18.589Z,13.50
2019-02-23T01:51:18.947Z,11.00
2019-02-23T01:52:18.563Z,12.60
2019-02-23T01:53:18.553Z,13.20
2019-02-23T01:54:18.648Z,10.70
2019-02-23T01:55:18.889Z,11.40
2019-02-23T01:56:18.527Z,11.50
2019-02-23T01:57:18.519Z,12.20
2019-02-23T01:58:19.002Z,10.70
2019-02-23T01:59:18.501Z,12.10
2019-02-23T02:00:18.499Z,13.30
2019-02-23T02:01:18.506Z,11.10
2019-02-23T02:02:18.506Z,11.00
2019-02-23T02:03:18.488Z,11.70
2019-02-23T02:04:18.437Z,11.80
2019-02-23T02:05:18.853Z,11.40
2019-02-23T02:06:18.792Z,12.10
2019-02-23T02:07:18.467Z,10.30
2019-02-23T02:08:18.447Z,11.80
2019-02-23T02:09:18.391Z,14.20
2019-02-23T02:10:18.402Z,11.50
2019-02-23T02:11:18.387Z,13.60
2019-02-23T02:12:18.682Z,10.20
2019-02-23T02:13:18.393Z,11.80
2019-02-23T02:14:18.328Z,12.80
2019-02-23T02:15:18.336Z,10.90
2019-02-23T02:16:18.318Z,12.70
2019-02-23T02:17:18.310Z,11.90
2019-02-23T02:18:18.296Z,11.00
2019-02-23T02:19:18.769Z,10.60
2019-02-23T02:20:18.277Z,13.50
2019-02-23T02:21:18.277Z,12.50
2019-02-23T02:22:18.253Z,10.90
2019-02-23T02:23:18.269Z,13.80
2019-02-23T02:24:18.228Z,12.30
2019-02-23T02:25:18.597Z,11.50
2019-02-23T02:26:19.595Z,13.20
2019-02-23T02:27:18.198Z,14.00
2019-02-23T02:28:18.197Z,13.60
2019-02-23T02:29:18.168Z,12.40
2019-02-23T02:30:18.266Z,12.80
2019-02-23T02:31:18.214Z,13.40
2019-02-23T02:32:18.169Z,12.60
2019-02-23T02:33:18.616Z,13.20
2019-02-23T02:34:18.149Z,12.50
2019-02-23T02:35:18.128Z,11.60
2019-02-23T02:36:18.163Z,13.10
2019-02-23T02:37:18.121Z,14.50
2019-02-23T02:38:18.081Z,15.40
2019-02-23T02:39:18.136Z,12.80
2019-02-23T02:40:18.474Z,15.00
2019-02-23T02:41:18.056Z,12.10
2019-02-23T02:42:18.051Z,13.80
2019-02-23T02:43:18.086Z,11.80
2019-02-23T02:44:18.020Z,13.50
2019-02-23T02:45:18.013Z,12.70
2019-02-23T02:46:18.008Z,14.90
2019-02-23T02:47:18.495Z,13.30
2019-02-23T02:48:17.979Z,16.60
2019-02-23T02:49:18.017Z,57.70
2019-02-23T02:50:24.362Z,17.20
2019-02-23T02:51:18.937Z,15.30
2019-02-23T02:52:17.946Z,13.30
2019-02-23T02:53:17.927Z,14.10
2019-02-23T02:54:18.338Z,12.10
2019-02-23T02:55:17.932Z,13.40
2019-02-23T02:56:17.892Z,13.50
2019-02-23T02:57:17.888Z,13.80
2019-02-23T02:58:17.891Z,13.50
2019-02-23T02:59:17.889Z,13.50
2019-02-23T03:01:36.583Z,15.70
2019-02-23T03:02:36.229Z,27.70
2019-02-23T03:03:36.226Z,14.50
2019-02-23T03:04:36.208Z,14.60
2019-02-23T03:05:36.203Z,14.20
2019-02-23T03:06:36.192Z,13.40
2019-02-23T03:07:36.216Z,18.10
2019-02-23T03:08:36.562Z,16.20
2019-02-23T03:09:36.151Z,14.90
2019-02-23T03:10:36.147Z,14.70
2019-02-23T03:11:36.132Z,12.20
2019-02-23T03:12:36.125Z,12.60
2019-02-23T03:13:36.141Z,13.80
2019-02-23T03:14:36.136Z,14.00
2019-02-23T03:15:36.442Z,14.20
2019-02-23T03:16:36.071Z,14.60
2019-02-23T03:17:36.062Z,13.80
2019-02-23T03:18:36.072Z,13.80
2019-02-23T03:19:36.266Z,13.70
2019-02-23T03:20:36.991Z,13.20
2019-02-23T03:21:36.032Z,15.50
2019-02-23T03:22:36.328Z,13.70
2019-02-23T03:23:36.006Z,14.40
2019-02-23T03:24:36.043Z,13.30
2019-02-23T03:25:36.022Z,16.10
2019-02-23T03:26:35.969Z,13.00
2019-02-23T03:27:36.783Z,12.80
2019-02-23T03:28:35.952Z,11.20
2019-02-23T03:29:36.256Z,14.20
2019-02-23T03:30:35.979Z,13.90
2019-02-23T03:31:35.982Z,13.80
2019-02-23T03:32:35.932Z,14.20
2019-02-23T03:33:35.924Z,13.70
2019-02-23T03:34:35.911Z,15.30
2019-02-23T03:35:35.885Z,14.20
2019-02-23T03:36:36.287Z,13.20
2019-02-23T03:37:36.178Z,13.60
2019-02-23T03:38:35.882Z,14.70
2019-02-23T03:39:35.834Z,15.60
2019-02-23T03:40:35.827Z,23.10
2019-02-23T03:41:35.815Z,14.60
2019-02-23T03:42:35.808Z,17.50
2019-02-23T03:43:36.141Z,15.90
2019-02-23T03:44:35.776Z,14.60
2019-02-23T03:45:35.775Z,15.50
2019-02-23T03:46:35.763Z,13.70
2019-02-23T03:47:35.817Z,14.70
2019-02-23T03:48:35.853Z,13.80
2019-02-23T03:49:35.791Z,15.70
2019-02-23T03:50:36.019Z,14.60
2019-02-23T03:51:35.712Z,12.70
2019-02-23T03:52:35.698Z,14.30
2019-02-23T03:53:35.707Z,14.10
2019-02-23T03:54:35.681Z,17.00
2019-02-23T03:55:36.237Z,22.00
2019-02-23T03:56:35.664Z,16.80
2019-02-23T03:57:37.004Z,15.30
2019-02-23T03:58:35.647Z,13.60
2019-02-23T03:59:35.634Z,19.50
2019-02-23T04:00:35.620Z,14.90
2019-02-23T04:01:35.644Z,14.30
2019-02-23T04:02:35.631Z,16.00
2019-02-23T04:03:35.599Z,12.90
2019-02-23T04:04:35.883Z,15.50
2019-02-23T04:05:35.567Z,15.30
2019-02-23T04:06:35.565Z,14.40
2019-02-23T04:07:35.617Z,14.70
2019-02-23T04:08:35.537Z,15.50
2019-02-23T04:09:35.532Z,16.50
2019-02-23T04:10:35.556Z,16.00
2019-02-23T04:11:35.848Z,17.50
2019-02-23T04:12:35.542Z,15.70
2019-02-23T04:13:35.557Z,16.00
2019-02-23T04:14:35.513Z,15.80
2019-02-23T04:15:35.479Z,15.40
2019-02-23T04:16:35.454Z,15.70
2019-02-23T04:17:35.476Z,15.00
2019-02-23T04:18:35.743Z,16.20
2019-02-23T04:19:35.466Z,14.50
2019-02-23T04:20:35.427Z,14.90
2019-02-23T04:21:35.411Z,17.60
2019-02-23T04:22:35.389Z,16.10
2019-02-23T04:23:35.438Z,18.10
2019-02-23T04:24:35.378Z,17.10
2019-02-23T04:25:35.689Z,17.80
2019-02-23T04:26:35.350Z,17.50
2019-02-23T04:27:35.375Z,16.70
2019-02-23T04:28:35.351Z,15.90
2019-02-23T04:29:35.336Z,18.30
2019-02-23T04:30:35.319Z,15.70
2019-02-23T04:31:36.070Z,16.40
2019-02-23T04:32:35.308Z,16.60
2019-02-23T04:33:35.278Z,17.10
2019-02-23T04:34:35.279Z,17.30
2019-02-23T04:35:35.278Z,20.10
2019-02-23T04:36:35.253Z,16.70
2019-02-23T04:37:35.274Z,18.70
2019-02-23T04:38:35.542Z,17.00
2019-02-23T04:39:35.274Z,18.00
2019-02-23T04:40:35.246Z,16.90
2019-02-23T04:41:35.231Z,16.90
2019-02-23T04:42:35.203Z,16.20
2019-02-23T04:43:35.215Z,15.40
2019-02-23T04:44:35.191Z,16.70
2019-02-23T04:45:35.476Z,18.40
2019-02-23T04:46:35.170Z,14.90
2019-02-23T04:47:35.138Z,18.40
2019-02-23T04:48:35.159Z,20.90
2019-02-23T04:49:35.432Z,15.40
2019-02-23T04:50:35.118Z,14.70
2019-02-23T04:51:35.112Z,16.50
2019-02-23T04:52:35.423Z,15.10
2019-02-23T04:53:35.758Z,16.10
2019-02-23T04:54:35.092Z,17.60
2019-02-23T04:55:35.295Z,16.80
2019-02-23T04:56:35.043Z,19.10
2019-02-23T04:57:35.133Z,18.50
2019-02-23T04:58:35.027Z,20.60
2019-02-23T04:59:36.056Z,19.30
2019-02-23T05:00:34.999Z,23.30
2019-02-23T05:01:35.091Z,38.50
2019-02-23T05:02:35.008Z,18.70
2019-02-23T05:03:35.004Z,19.60
2019-02-23T05:04:34.977Z,16.70
2019-02-23T05:05:34.947Z,18.50
2019-02-23T05:06:36.443Z,18.00
2019-02-23T05:07:35.781Z,33.00
2019-02-23T05:08:35.005Z,21.20
2019-02-23T05:09:34.968Z,17.70
2019-02-23T05:10:34.905Z,17.80
2019-02-23T05:11:34.906Z,15.80
2019-02-23T05:12:34.884Z,16.90
2019-02-23T05:13:36.320Z,21.10
2019-02-23T05:14:34.863Z,15.10
2019-02-23T05:15:34.859Z,16.90
2019-02-23T05:16:34.850Z,16.70
2019-02-23T05:17:34.848Z,17.10
2019-02-23T05:18:34.829Z,19.70
2019-02-23T05:19:34.847Z,17.70
2019-02-23T05:20:35.325Z,16.30
2019-02-23T05:21:34.803Z,17.40
2019-02-23T05:22:34.802Z,17.70
2019-02-23T05:23:34.812Z,19.00
2019-02-23T05:24:34.782Z,19.20
2019-02-23T05:25:34.842Z,21.10
2019-02-23T05:26:34.813Z,20.10
2019-02-23T05:27:35.137Z,20.30
2019-02-23T05:28:34.728Z,16.60
2019-02-23T05:29:34.721Z,19.40
2019-02-23T05:30:34.731Z,19.00
2019-02-23T05:31:34.730Z,17.60
2019-02-23T05:32:34.691Z,17.30
2019-02-23T05:33:34.693Z,22.50
2019-02-23T05:34:36.198Z,18.50
2019-02-23T05:35:34.643Z,19.90
2019-02-23T05:36:34.635Z,16.80
2019-02-23T05:37:34.669Z,18.70
2019-02-23T05:38:34.622Z,20.60
2019-02-23T05:39:34.617Z,20.10
2019-02-23T05:40:34.592Z,18.00
2019-02-23T05:41:35.187Z,16.90
2019-02-23T05:42:34.587Z,18.70
2019-02-23T05:43:34.659Z,22.30
2019-02-23T05:44:34.562Z,17.70
2019-02-23T05:45:35.236Z,24.00
2019-02-23T05:46:34.628Z,21.40
2019-02-23T05:47:34.540Z,20.20
2019-02-23T05:48:35.065Z,18.10
2019-02-23T05:49:37.022Z,19.60
2019-02-23T05:50:34.491Z,21.00
2019-02-23T05:51:38.634Z,22.90
2019-02-23T05:52:34.467Z,21.60
2019-02-23T05:53:34.527Z,21.70
2019-02-23T05:54:34.454Z,23.20
2019-02-23T05:55:34.948Z,26.20
2019-02-23T05:56:34.472Z,21.60
2019-02-23T05:57:34.454Z,19.30
2019-02-23T05:58:34.458Z,20.00
2019-02-23T05:59:34.409Z,18.50
2019-02-23T06:00:34.389Z,19.40
2019-02-23T06:01:34.689Z,22.30
2019-02-23T06:02:34.730Z,20.70
2019-02-23T06:03:34.352Z,22.80
2019-02-23T06:04:34.359Z,18.70
2019-02-23T06:05:34.359Z,20.50
2019-02-23T06:06:34.333Z,19.60
2019-02-23T06:07:34.373Z,20.30
2019-02-23T06:08:34.328Z,20.40
2019-02-23T06:09:34.772Z,19.50
2019-02-23T06:10:34.316Z,20.30
2019-02-23T06:11:34.381Z,20.90
2019-02-23T06:12:34.286Z,19.40
2019-02-23T06:13:34.466Z,23.10
2019-02-23T06:14:34.244Z,22.60
2019-02-23T06:15:34.261Z,23.00
2019-02-23T06:16:34.621Z,20.90
2019-02-23T06:17:34.233Z,20.30
2019-02-23T06:18:34.286Z,26.10
2019-02-23T06:19:34.393Z,21.00
2019-02-23T06:20:34.312Z,22.40
2019-02-23T06:21:34.232Z,20.00
2019-02-23T06:22:34.212Z,20.20
2019-02-23T06:23:34.677Z,18.60
2019-02-23T06:24:34.147Z,18.80
2019-02-23T06:25:34.293Z,21.40
2019-02-23T06:26:34.131Z,19.90
2019-02-23T06:27:34.133Z,21.10
2019-02-23T06:28:34.133Z,19.40
2019-02-23T06:29:34.105Z,19.40
2019-02-23T06:30:35.583Z,20.70
2019-02-23T06:31:34.129Z,22.00
2019-02-23T06:32:34.069Z,19.90
2019-02-23T06:33:34.054Z,19.00
2019-02-23T06:34:34.087Z,17.40
2019-02-23T06:35:34.043Z,20.60
2019-02-23T06:36:34.032Z,20.90
2019-02-23T06:37:35.812Z,21.90
2019-02-23T06:38:33.996Z,20.40
2019-02-23T06:39:34.087Z,20.60
2019-02-23T06:40:33.981Z,23.80
2019-02-23T06:41:33.991Z,24.30
2019-02-23T06:42:33.981Z,23.20
2019-02-23T06:43:33.979Z,21.90
2019-02-23T06:44:34.398Z,25.20
2019-02-23T06:45:33.929Z,23.50
2019-02-23T06:46:34.727Z,20.10
2019-02-23T06:47:33.913Z,24.30
2019-02-23T06:48:33.894Z,23.00
2019-02-23T06:49:33.923Z,19.60
2019-02-23T06:50:33.866Z,21.40
2019-02-23T06:51:34.251Z,21.20
2019-02-23T06:52:33.866Z,20.90
2019-02-23T06:53:33.861Z,21.20
2019-02-23T06:54:33.853Z,24.20
2019-02-23T06:55:33.868Z,24.60
2019-02-23T06:56:34.739Z,21.40
2019-02-23T06:57:33.811Z,22.10
2019-02-23T06:58:33.798Z,21.30
2019-02-23T06:59:33.800Z,22.60
2019-02-23T07:00:33.828Z,21.90
2019-02-23T07:01:33.820Z,22.40
2019-02-23T07:02:34.734Z,23.40
2019-02-23T07:03:34.117Z,29.80
2019-02-23T07:04:33.732Z,22.50
2019-02-23T07:05:33.745Z,22.90
2019-02-23T07:06:33.724Z,24.50
2019-02-23T07:07:33.764Z,24.40
2019-02-23T07:08:33.690Z,25.40
2019-02-23T07:09:33.710Z,25.10
2019-02-23T07:10:33.686Z,24.10
2019-02-23T07:11:33.686Z,22.20
2019-02-23T07:12:33.645Z,24.10
2019-02-23T07:13:33.707Z,23.90
2019-02-23T07:14:33.646Z,23.40
2019-02-23T07:15:33.979Z,20.10
2019-02-23T07:16:33.705Z,23.00
2019-02-23T07:17:33.676Z,24.10
2019-02-23T07:18:33.610Z,23.40
2019-02-23T07:19:33.603Z,21.90
2019-02-23T07:20:43.448Z,26.20
2019-02-23T07:21:34.587Z,24.70
2019-02-23T07:22:34.029Z,26.80
2019-02-23T07:23:33.541Z,25.50
2019-02-23T07:24:33.536Z,24.70
2019-02-23T07:25:33.553Z,24.30
2019-02-23T07:26:33.509Z,21.70
2019-02-23T07:27:33.495Z,26.30
2019-02-23T07:28:33.482Z,25.80
2019-02-23T07:29:33.855Z,25.90
2019-02-23T07:30:33.474Z,24.50
2019-02-23T07:31:33.522Z,23.90
2019-02-23T07:32:33.543Z,26.60
2019-02-23T07:33:33.464Z,25.20
2019-02-23T07:34:33.446Z,21.60
2019-02-23T07:35:33.432Z,24.00
2019-02-23T07:36:33.907Z,23.60
2019-02-23T07:37:33.471Z,24.20
2019-02-23T07:38:35.526Z,22.50
2019-02-23T07:39:33.376Z,22.80
2019-02-23T07:40:33.484Z,22.10
2019-02-23T07:41:33.353Z,24.70
2019-02-23T07:42:33.364Z,25.40
2019-02-23T07:43:33.778Z,23.60
2019-02-23T07:44:33.332Z,21.30
2019-02-23T07:45:33.332Z,26.00
2019-02-23T07:46:33.319Z,24.70
2019-02-23T07:47:33.329Z,29.00
2019-02-23T07:48:33.781Z,23.00
2019-02-23T07:49:33.477Z,26.60
2019-02-23T07:50:34.676Z,25.30
2019-02-23T07:51:33.242Z,28.50
2019-02-23T07:52:33.246Z,26.60
2019-02-23T07:53:33.268Z,29.30
2019-02-23T07:54:33.218Z,23.00
2019-02-23T07:55:33.303Z,26.00
2019-02-23T07:56:35.107Z,24.00
2019-02-23T07:57:33.652Z,39.80
2019-02-23T07:58:33.203Z,28.00
2019-02-23T07:59:33.157Z,24.90
2019-02-23T08:00:33.192Z,25.10
2019-02-23T08:01:33.287Z,27.00
2019-02-23T08:02:33.141Z,25.80
2019-02-23T08:03:33.153Z,29.70
2019-02-23T08:04:33.475Z,24.60
2019-02-23T08:05:33.112Z,25.30
2019-02-23T08:06:33.104Z,26.40
2019-02-23T08:07:33.152Z,24.90
2019-02-23T08:08:33.105Z,25.70
2019-02-23T08:09:33.087Z,26.70
2019-02-23T08:10:33.706Z,27.40
2019-02-23T08:11:33.078Z,27.20
2019-02-23T08:12:33.035Z,35.70
2019-02-23T08:13:33.246Z,26.50
2019-02-23T08:14:33.019Z,25.70
2019-02-23T08:15:33.053Z,23.50
2019-02-23T08:16:33.005Z,28.10
2019-02-23T08:17:33.384Z,27.10
2019-02-23T08:18:33.003Z,29.30
2019-02-23T08:19:32.996Z,25.10
2019-02-23T08:20:33.698Z,27.30
2019-02-23T08:21:34.791Z,24.80
2019-02-23T08:22:37.469Z,26.70
2019-02-23T08:23:33.762Z,29.90
2019-02-23T08:24:32.940Z,24.20
2019-02-23T08:25:33.884Z,27.30
2019-02-23T08:26:32.928Z,24.30
2019-02-23T08:27:32.872Z,26.60
2019-02-23T08:28:33.903Z,30.40
2019-02-23T08:29:32.873Z,25.40
2019-02-23T08:30:32.873Z,23.80
2019-02-23T08:31:32.936Z,27.20
2019-02-23T08:32:34.777Z,25.90
2019-02-23T08:33:32.830Z,26.30
2019-02-23T08:34:33.665Z,29.50
2019-02-23T08:35:32.796Z,24.90
2019-02-23T08:36:32.781Z,23.60
2019-02-23T08:37:32.826Z,28.20
2019-02-23T08:38:32.762Z,23.70
2019-02-23T08:39:32.799Z,27.30
2019-02-23T08:40:32.799Z,28.00
2019-02-23T08:41:32.778Z,23.90
2019-02-23T08:42:32.808Z,27.10
2019-02-23T08:43:32.848Z,25.00
2019-02-23T08:44:32.729Z,24.20
2019-02-23T08:45:32.732Z,25.30
2019-02-23T08:46:32.691Z,25.60
2019-02-23T08:47:33.923Z,25.60
2019-02-23T08:48:33.444Z,25.50
2019-02-23T08:49:32.728Z,31.80
2019-02-23T08:50:32.727Z,25.10
2019-02-23T08:51:32.676Z,25.20
2019-02-23T08:52:32.678Z,26.50
2019-02-23T08:53:32.693Z,25.00
2019-02-23T08:54:32.654Z,24.70
2019-02-23T08:55:32.636Z,27.30
2019-02-23T08:56:32.583Z,27.30
2019-02-23T08:57:32.567Z,25.30
2019-02-23T08:58:32.561Z,25.30
2019-02-23T08:59:32.552Z,25.20
2019-02-23T09:00:32.668Z,26.80
2019-02-23T09:01:32.697Z,29.20
2019-02-23T09:02:32.529Z,26.70
2019-02-23T09:03:32.515Z,22.50
2019-02-23T09:04:32.515Z,26.30
2019-02-23T09:05:32.551Z,29.00
2019-02-23T09:06:32.745Z,26.00
2019-02-23T09:07:33.390Z,25.20
2019-02-23T09:08:32.600Z,23.40
2019-02-23T09:09:34.759Z,28.20
2019-02-23T09:10:32.734Z,27.30
2019-02-23T09:11:34.650Z,26.80
2019-02-23T09:12:40.538Z,25.50
2019-02-23T09:13:34.515Z,25.20
2019-02-23T09:14:33.981Z,26.60
2019-02-23T09:15:33.693Z,23.90
2019-02-23T09:16:36.557Z,25.70
2019-02-23T09:17:32.717Z,27.70
2019-02-23T09:18:32.388Z,25.40
2019-02-23T09:19:32.454Z,23.40
2019-02-23T09:20:32.362Z,27.50
2019-02-23T09:21:32.533Z,26.70
2019-02-23T09:22:32.302Z,27.00
2019-02-23T09:23:32.453Z,29.70
2019-02-23T09:24:32.341Z,26.60
2019-02-23T09:25:32.331Z,28.50
2019-02-23T09:26:32.312Z,27.00
2019-02-23T09:27:32.265Z,27.30
2019-02-23T09:28:32.487Z,23.30
2019-02-23T09:29:32.242Z,31.50
2019-02-23T09:30:32.294Z,28.40
2019-02-23T09:31:32.278Z,29.90
2019-02-23T09:32:32.269Z,30.80
2019-02-23T09:33:32.511Z,26.20
2019-02-23T09:34:32.224Z,26.50
2019-02-23T09:35:37.208Z,23.80
2019-02-23T09:36:32.211Z,28.30
2019-02-23T09:37:33.069Z,33.50
2019-02-23T09:38:32.549Z,27.20
2019-02-23T09:39:32.983Z,26.70
2019-02-23T09:40:32.363Z,27.30
2019-02-23T09:41:32.346Z,31.20
2019-02-23T09:42:32.599Z,28.50
2019-02-23T09:43:32.153Z,24.70
2019-02-23T09:44:32.137Z,35.40
2019-02-23T09:45:32.063Z,26.70
2019-02-23T09:46:32.058Z,27.50
2019-02-23T09:47:32.053Z,26.20
2019-02-23T09:48:32.728Z,32.40
2019-02-23T09:49:32.123Z,33.90
2019-02-23T09:50:32.148Z,31.40
2019-02-23T09:51:32.061Z,29.60
2019-02-23T09:52:32.029Z,27.30
2019-02-23T09:53:32.708Z,28.60
2019-02-23T09:54:32.021Z,27.10
2019-02-23T09:55:32.089Z,26.70
2019-02-23T09:56:32.095Z,27.60
2019-02-23T09:57:31.951Z,29.10
2019-02-23T09:58:32.753Z,26.20
2019-02-23T09:59:31.921Z,24.90
2019-02-23T10:00:32.692Z,26.50
2019-02-23T10:01:31.973Z,26.10
2019-02-23T10:02:31.904Z,29.90
2019-02-23T10:03:31.930Z,27.30
2019-02-23T10:04:32.204Z,26.80
2019-02-23T10:05:32.011Z,28.40
2019-02-23T10:06:32.166Z,25.90
2019-02-23T10:07:32.609Z,28.50
2019-02-23T10:08:31.943Z,34.20
2019-02-23T10:09:32.734Z,25.70
2019-02-23T10:10:31.826Z,26.40
2019-02-23T10:11:31.962Z,27.70
2019-02-23T10:14:23.728Z,40.70
2019-02-23T10:15:22.545Z,26.20
2019-02-23T10:16:22.703Z,25.60
2019-02-23T10:17:22.493Z,27.50
2019-02-23T10:18:22.519Z,26.80
2019-02-23T10:19:22.482Z,28.20
2019-02-23T10:20:23.639Z,27.20
2019-02-23T10:21:22.861Z,27.20
2019-02-23T10:22:22.602Z,23.90
2019-02-23T10:23:22.565Z,27.40
2019-02-23T10:24:24.727Z,21.40
2019-02-23T10:25:23.823Z,24.90
2019-02-23T10:26:23.733Z,22.80
2019-02-23T10:27:22.365Z,29.20
2019-02-23T10:28:22.466Z,24.10
2019-02-23T10:29:22.392Z,28.10
2019-02-23T10:30:22.452Z,27.70
2019-02-23T10:31:22.901Z,28.10
2019-02-23T10:32:22.315Z,24.80
2019-02-23T10:33:22.837Z,28.80
2019-02-23T10:34:22.377Z,30.80
2019-02-23T10:35:22.496Z,25.00
2019-02-23T10:36:23.231Z,30.30
2019-02-23T10:37:23.391Z,27.60
2019-02-23T10:38:22.319Z,32.30
2019-02-23T10:39:22.258Z,27.70
2019-02-23T10:40:22.686Z,30.90
2019-02-23T10:41:22.259Z,38.90
2019-02-23T10:42:22.274Z,28.00
2019-02-23T10:43:23.781Z,28.60
2019-02-23T10:44:22.424Z,26.70
2019-02-23T10:45:22.364Z,27.90
2019-02-23T10:46:22.182Z,27.20
2019-02-23T10:47:23.767Z,24.50
2019-02-23T10:48:22.149Z,26.10
2019-02-23T10:49:22.317Z,30.80
2019-02-23T10:50:22.280Z,24.20
2019-02-23T10:51:22.262Z,25.10
2019-02-23T10:52:22.141Z,25.70
2019-02-23T10:53:32.445Z,29.50
2019-02-23T10:54:23.323Z,28.20
2019-02-23T10:55:22.213Z,26.50
2019-02-23T10:56:22.106Z,30.30
2019-02-23T10:57:22.107Z,28.30
2019-02-23T10:58:22.939Z,31.20
2019-02-23T10:59:22.278Z,22.80
2019-02-23T11:00:23.845Z,27.30
2019-02-23T11:01:22.082Z,32.00
2019-02-23T11:02:22.029Z,26.80
2019-02-23T11:03:22.018Z,23.70
2019-02-23T11:04:22.391Z,24.40
2019-02-23T11:05:23.756Z,26.00
2019-02-23T11:06:22.519Z,23.80
2019-02-23T11:07:22.557Z,24.60
2019-02-23T11:08:22.280Z,32.40
2019-02-23T11:09:22.150Z,37.80
2019-02-23T11:10:23.804Z,25.00
2019-02-23T11:11:22.156Z,31.20
2019-02-23T11:12:22.420Z,28.40
2019-02-23T11:13:22.174Z,22.70
2019-02-23T11:14:21.886Z,22.50
2019-02-23T11:15:21.868Z,24.80
2019-02-23T11:16:21.860Z,28.10
2019-02-23T11:17:22.090Z,26.70
2019-02-23T11:18:23.485Z,24.80
2019-02-23T11:19:22.550Z,26.00
2019-02-23T11:20:23.682Z,25.50
2019-02-23T11:21:21.906Z,27.30
2019-02-23T11:22:22.489Z,26.60
2019-02-23T11:23:21.985Z,30.80
2019-02-23T11:24:23.188Z,28.70
2019-02-23T11:25:22.445Z,26.70
2019-02-23T11:26:23.189Z,25.30
2019-02-23T11:27:22.539Z,30.70
2019-02-23T11:28:22.361Z,26.00
2019-02-23T11:29:22.721Z,27.70
2019-02-23T11:30:22.831Z,21.00
2019-02-23T11:31:21.874Z,30.70
2019-02-23T11:32:21.807Z,31.00
2019-02-23T11:33:21.708Z,29.40
2019-02-23T11:34:26.813Z,26.90
2019-02-23T11:35:21.912Z,24.70
2019-02-23T11:36:22.136Z,29.30
2019-02-23T11:37:21.994Z,24.40
2019-02-23T11:38:21.655Z,25.20
2019-02-23T11:39:22.742Z,26.70
2019-02-23T11:40:23.567Z,24.20
2019-02-23T11:41:21.969Z,24.40
2019-02-23T11:42:21.989Z,31.60
2019-02-23T11:43:22.167Z,25.20
2019-02-23T11:44:21.566Z,27.90
2019-02-23T11:45:21.554Z,26.40
2019-02-23T11:46:21.894Z,24.10
2019-02-23T11:47:21.761Z,23.30
2019-02-23T11:48:22.927Z,24.80
2019-02-23T11:49:21.817Z,29.40
2019-02-23T11:50:21.996Z,26.10
2019-02-23T11:51:21.754Z,26.50
2019-02-23T11:52:22.751Z,25.50
2019-02-23T11:53:21.854Z,21.00
2019-02-23T11:54:21.801Z,22.30
2019-02-23T11:55:22.024Z,24.00
2019-02-23T11:56:22.012Z,22.00
2019-02-23T11:57:21.676Z,23.80
2019-02-23T11:58:21.447Z,23.80
2019-02-23T11:59:21.489Z,26.40
2019-02-23T12:00:21.737Z,24.50
2019-02-23T12:01:21.605Z,22.10
2019-02-23T12:02:21.833Z,21.50
2019-02-23T12:03:21.360Z,25.80
2019-02-23T12:04:21.420Z,22.20
2019-02-23T12:05:21.350Z,24.90
2019-02-23T12:06:21.519Z,19.60
2019-02-23T12:07:21.378Z,23.60
2019-02-23T12:08:21.599Z,26.90
2019-02-23T12:09:22.019Z,21.40
2019-02-23T12:10:21.335Z,22.60
2019-02-23T12:11:21.392Z,22.40
2019-02-23T12:12:22.907Z,24.70
2019-02-23T12:13:21.396Z,27.00
2019-02-23T12:14:21.720Z,24.40
2019-02-23T12:15:21.274Z,24.50
2019-02-23T12:16:24.730Z,29.80
2019-02-23T12:17:21.744Z,24.50
2019-02-23T12:18:22.751Z,29.60
2019-02-23T12:19:21.746Z,20.40
2019-02-23T12:20:21.271Z,19.60
2019-02-23T12:21:21.176Z,22.60
2019-02-23T12:22:21.173Z,22.70
2019-02-23T12:23:21.483Z,21.00
2019-02-23T12:24:21.183Z,21.50
2019-02-23T12:25:21.215Z,21.10
2019-02-23T12:26:21.803Z,19.40
2019-02-23T12:27:21.223Z,20.40
2019-02-23T12:28:21.807Z,19.00
2019-02-23T12:29:21.105Z,22.30
2019-02-23T12:30:21.141Z,25.10
2019-02-23T12:31:21.067Z,20.20
2019-02-23T12:32:21.608Z,25.00
2019-02-23T12:33:21.084Z,19.80
2019-02-23T12:34:21.254Z,20.00
2019-02-23T12:35:21.453Z,20.30
2019-02-23T12:36:21.283Z,23.90
2019-02-23T12:37:21.153Z,19.70
2019-02-23T12:38:21.787Z,23.10
2019-02-23T12:39:21.230Z,25.10
2019-02-23T12:40:21.668Z,21.70
2019-02-23T12:41:21.514Z,19.50
2019-02-23T12:42:21.191Z,24.70
2019-02-23T12:43:20.966Z,20.30
2019-02-23T12:44:20.964Z,20.70
2019-02-23T12:45:20.957Z,20.50
2019-02-23T12:46:21.189Z,18.30
2019-02-23T12:47:21.231Z,19.10
2019-02-23T12:48:21.458Z,25.30
2019-02-23T12:49:21.341Z,17.10
2019-02-23T12:50:21.403Z,26.00
2019-02-23T12:51:21.099Z,21.30
2019-02-23T12:52:21.268Z,33.20
2019-02-23T12:53:21.016Z,21.50
2019-02-23T12:54:23.661Z,26.80
2019-02-23T12:55:20.811Z,21.40